Time;durP1;ratioP1;P1;durP2;ratioP2;P2;SDS_P1;SDS_P2;PMS_P1;PMS_P2;Temp;Humidity;BMP_temperature;BMP_pressure;BME280_temperature;BME280_humidity;BME280_pressure;Samples;Min_cycle;Max_cycle;Signal;HPM_P1;HPM_P2
2022/01/10 00:01:07;;;;;;;0.10;0.10;;;4.00;99.90;;;;;;4981341;28;20624;-75
2022/01/10 00:03:35;;;;;;;0.10;0.10;;;4.00;99.90;;;;;;4982804;28;20726;-75
2022/01/10 00:06:02;;;;;;;0.10;0.10;;;4.00;99.90;;;;;;4979887;28;20715;-75
2022/01/10 00:08:30;;;;;;;0.10;0.10;;;4.00;99.90;;;;;;4981627;28;21186;-75
2022/01/10 00:10:56;;;;;;;0.10;0.10;;;4.00;99.90;;;;;;4981079;28;20611;-75
2022/01/10 00:13:25;;;;;;;0.10;0.10;;;4.00;99.90;;;;;;4983101;28;20641;-73
2022/01/10 00:15:52;;;;;;;0.10;0.10;;;4.00;99.90;;;;;;4974557;28;20616;-75
2022/01/10 00:18:19;;;;;;;0.10;0.10;;;4.00;99.90;;;;;;4972692;28;20659;-75
2022/01/10 00:20:46;;;;;;;0.10;0.10;;;3.90;99.90;;;;;;4973918;28;20650;-75
2022/01/10 00:23:13;;;;;;;0.10;0.10;;;3.90;99.90;;;;;;4969875;28;20663;-74
2022/01/10 00:25:41;;;;;;;0.10;0.10;;;3.90;99.90;;;;;;4973179;28;21090;-75
2022/01/10 00:28:08;;;;;;;0.10;0.10;;;3.90;99.90;;;;;;4974382;28;20644;-75
2022/01/10 00:30:36;;;;;;;0.10;0.10;;;3.90;99.90;;;;;;4974504;28;20630;-75
2022/01/10 00:33:03;;;;;;;0.10;0.10;;;3.90;99.90;;;;;;4986088;28;20755;-75
2022/01/10 00:35:30;;;;;;;0.10;0.10;;;3.90;99.90;;;;;;4976209;28;20692;-75
2022/01/10 00:37:57;;;;;;;0.10;0.10;;;4.00;99.90;;;;;;4986436;28;20636;-75
2022/01/10 00:40:24;;;;;;;0.10;0.10;;;4.00;99.90;;;;;;4979573;28;20732;-71
2022/01/10 00:42:56;;;;;;;0.10;0.10;;;3.90;99.90;;;;;;4978421;28;20676;-74
2022/01/10 00:45:27;;;;;;;0.10;0.10;;;4.00;99.90;;;;;;4978968;28;20616;-75
2022/01/10 00:47:57;;;;;;;0.10;0.10;;;3.90;99.90;;;;;;4988806;28;20625;-74
2022/01/10 00:50:25;;;;;;;0.20;0.20;;;3.90;99.90;;;;;;4989324;28;21174;-75
2022/01/10 00:52:52;;;;;;;0.10;0.10;;;3.90;99.90;;;;;;4987292;28;20676;-75
2022/01/10 00:55:20;;;;;;;0.10;0.10;;;4.00;99.90;;;;;;4982025;28;20632;-74
2022/01/10 00:57:47;;;;;;;0.10;0.10;;;4.00;99.90;;;;;;4980853;28;20675;-72
2022/01/10 01:00:16;;;;;;;0.10;0.10;;;4.00;99.90;;;;;;4987165;28;20643;-73
2022/01/10 01:02:43;;;;;;;0.10;0.10;;;4.00;99.90;;;;;;4986920;28;20684;-74
2022/01/10 01:05:14;;;;;;;0.10;0.10;;;4.00;99.90;;;;;;4988432;28;20666;-75
2022/01/10 01:07:41;;;;;;;0.10;0.10;;;4.00;99.90;;;;;;4987519;28;20727;-73
2022/01/10 01:10:44;;;;;;;0.10;0.10;;;4.00;99.90;;;;;;4984719;28;20616;-74
2022/01/10 01:13:24;;;;;;;0.10;0.10;;;4.00;99.90;;;;;;4984167;28;20656;-74
2022/01/10 01:19:02;;;;;;;0.10;0.10;;;4.00;99.90;;;;;;4985276;28;20627;-74
2022/01/10 01:24:16;;;;;;;0.10;0.10;;;4.00;99.90;;;;;;4973135;28;20678;-74
2022/01/10 01:26:46;;;;;;;0.10;0.10;;;4.00;99.90;;;;;;4982012;28;20639;-74
2022/01/10 01:29:15;;;;;;;0.10;0.10;;;4.00;99.90;;;;;;4971332;28;20632;-74
2022/01/10 01:31:42;;;;;;;0.10;0.10;;;4.00;99.90;;;;;;4977363;28;20649;-74
2022/01/10 01:34:10;;;;;;;0.10;0.10;;;4.10;99.90;;;;;;4984994;28;20605;-73
2022/01/10 01:36:38;;;;;;;0.10;0.10;;;4.10;99.90;;;;;;5017585;28;20690;-73
2022/01/10 01:39:16;;;;;;;0.10;0.10;;;4.10;99.90;;;;;;4989205;28;21175;-74
2022/01/10 01:41:44;;;;;;;0.10;0.10;;;4.10;99.90;;;;;;4983758;28;20636;-73
2022/01/10 01:44:11;;;;;;;0.10;0.10;;;4.10;99.90;;;;;;4985608;28;20691;-73
2022/01/10 01:46:39;;;;;;;0.00;0.00;;;4.10;99.90;;;;;;4987371;28;20679;-73
2022/01/10 01:49:08;;;;;;;0.10;0.10;;;4.20;99.90;;;;;;4985915;28;20706;-73
2022/01/10 01:51:36;;;;;;;0.10;0.10;;;4.10;99.90;;;;;;4985294;28;20728;-73
2022/01/10 01:54:05;;;;;;;0.20;0.20;;;4.20;99.90;;;;;;4984582;28;20660;-73
2022/01/10 01:56:34;;;;;;;0.10;0.10;;;4.20;99.90;;;;;;4981409;28;20645;-73
2022/01/10 01:59:01;;;;;;;0.10;0.10;;;4.20;99.90;;;;;;4986117;28;20739;-73
2022/01/10 02:01:28;;;;;;;0.10;0.10;;;4.20;99.90;;;;;;4976199;28;20625;-72
2022/01/10 02:03:55;;;;;;;0.10;0.10;;;4.20;99.90;;;;;;4981843;28;20680;-73
2022/01/10 02:06:29;;;;;;;0.10;0.10;;;4.20;99.90;;;;;;4987476;28;20631;-72
2022/01/10 02:08:56;;;;;;;0.10;0.10;;;4.30;99.90;;;;;;4986347;28;20636;-72
2022/01/10 02:11:24;;;;;;;0.10;0.10;;;4.30;99.90;;;;;;4987515;28;20655;-72
2022/01/10 02:13:52;;;;;;;0.10;0.10;;;4.30;99.90;;;;;;4985005;28;20691;-73
2022/01/10 02:16:41;;;;;;;0.10;0.10;;;4.30;99.90;;;;;;4982528;28;20629;-72
2022/01/10 02:19:13;;;;;;;0.10;0.10;;;4.30;99.90;;;;;;4985849;28;20718;-72
2022/01/10 02:21:42;;;;;;;0.10;0.10;;;4.30;99.90;;;;;;4985613;28;20632;-72
2022/01/10 02:24:09;;;;;;;0.10;0.10;;;4.30;99.90;;;;;;4985013;28;20739;-72
2022/01/10 02:26:39;;;;;;;0.10;0.10;;;4.30;99.90;;;;;;4977548;28;20630;-73
2022/01/10 02:29:07;;;;;;;0.10;0.10;;;4.30;99.90;;;;;;4986013;28;20628;-73
2022/01/10 02:31:36;;;;;;;0.10;0.10;;;4.30;99.90;;;;;;4983150;28;20667;-73
2022/01/10 02:34:04;;;;;;;0.10;0.10;;;4.30;99.90;;;;;;4984983;28;20656;-73
2022/01/10 02:36:30;;;;;;;0.10;0.10;;;4.30;99.90;;;;;;5014933;28;21007;-73
2022/01/10 02:39:00;;;;;;;0.10;0.10;;;4.40;99.90;;;;;;4982741;28;20640;-73
2022/01/10 02:41:31;;;;;;;0.10;0.10;;;4.40;99.90;;;;;;4981241;28;20624;-73
2022/01/10 02:44:02;;;;;;;0.10;0.10;;;4.40;99.90;;;;;;4983967;28;20715;-73
2022/01/10 02:46:33;;;;;;;0.10;0.10;;;4.40;99.90;;;;;;4980524;28;20632;-73
2022/01/10 02:49:01;;;;;;;0.10;0.10;;;4.40;99.90;;;;;;4986157;28;20616;-73
2022/01/10 02:51:28;;;;;;;0.17;0.17;;;4.40;99.90;;;;;;4983548;28;20657;-73
2022/01/10 02:53:55;;;;;;;0.10;0.10;;;4.40;99.90;;;;;;4984272;28;21401;-73
2022/01/10 02:56:23;;;;;;;0.10;0.10;;;4.40;99.90;;;;;;4984730;28;20620;-72
2022/01/10 02:58:50;;;;;;;0.10;0.10;;;4.40;99.90;;;;;;4981496;28;20628;-73
2022/01/10 03:01:17;;;;;;;0.10;0.10;;;4.40;99.90;;;;;;4983618;28;20675;-73
2022/01/10 03:03:44;;;;;;;0.10;0.10;;;4.40;99.90;;;;;;4982276;28;20676;-73
2022/01/10 03:06:12;;;;;;;0.10;0.10;;;4.40;99.90;;;;;;4984551;28;20616;-73
2022/01/10 03:08:39;;;;;;;0.10;0.10;;;4.40;99.90;;;;;;4985217;28;20652;-73
2022/01/10 03:11:08;;;;;;;0.10;0.10;;;4.40;99.90;;;;;;4983027;28;20629;-73
2022/01/10 03:13:37;;;;;;;0.10;0.10;;;4.40;99.90;;;;;;4982720;28;20664;-73
2022/01/10 03:16:05;;;;;;;0.10;0.10;;;4.40;99.90;;;;;;4979281;28;21191;-73
2022/01/10 03:18:31;;;;;;;0.10;0.10;;;4.40;99.90;;;;;;4983508;28;20636;-73
2022/01/10 03:20:58;;;;;;;0.10;0.10;;;4.40;99.90;;;;;;4982336;28;21284;-73
2022/01/10 03:23:25;;;;;;;0.10;0.10;;;4.40;99.90;;;;;;4984439;28;20674;-72
2022/01/10 03:25:52;;;;;;;0.10;0.10;;;4.40;99.90;;;;;;4981997;28;20624;-73
2022/01/10 03:28:19;;;;;;;0.10;0.10;;;4.40;99.90;;;;;;4984356;28;20640;-73
2022/01/10 03:30:47;;;;;;;0.10;0.10;;;4.40;99.90;;;;;;4984468;28;20628;-73
2022/01/10 03:33:18;;;;;;;0.10;0.10;;;4.40;99.90;;;;;;4985054;28;20660;-73
2022/01/10 03:35:46;;;;;;;0.10;0.10;;;4.40;99.90;;;;;;4980403;28;20635;-73
2022/01/10 03:38:16;;;;;;;0.10;0.10;;;4.40;99.90;;;;;;4982164;28;20636;-73
2022/01/10 03:40:44;;;;;;;0.10;0.10;;;4.40;99.90;;;;;;4985061;28;20643;-73
2022/01/10 03:43:16;;;;;;;0.10;0.10;;;4.40;99.90;;;;;;4982922;28;20714;-72
2022/01/10 03:45:43;;;;;;;0.10;0.10;;;4.40;99.90;;;;;;4984948;28;20710;-73
2022/01/10 03:48:13;;;;;;;0.10;0.10;;;4.40;99.90;;;;;;4983947;28;20620;-72
2022/01/10 03:50:39;;;;;;;0.10;0.10;;;4.40;99.90;;;;;;4983403;28;20659;-72
2022/01/10 03:53:07;;;;;;;0.10;0.10;;;4.40;99.90;;;;;;4984273;28;20648;-73
2022/01/10 03:55:33;;;;;;;0.10;0.10;;;4.40;99.90;;;;;;4984794;28;20638;-73
2022/01/10 03:58:04;;;;;;;0.10;0.10;;;4.40;99.90;;;;;;4981276;28;20686;-73
2022/01/10 04:00:30;;;;;;;0.10;0.10;;;4.40;99.90;;;;;;4983758;28;20620;-73
2022/01/10 04:03:02;;;;;;;0.10;0.10;;;4.40;99.90;;;;;;4985802;28;21232;-73
2022/01/10 04:05:36;;;;;;;0.10;0.10;;;4.40;99.90;;;;;;4985781;28;20711;-73
2022/01/10 04:08:04;;;;;;;0.10;0.10;;;4.40;99.90;;;;;;4985897;28;21241;-72
2022/01/10 04:10:31;;;;;;;0.10;0.10;;;4.40;99.90;;;;;;4982970;28;20620;-72
2022/01/10 04:12:58;;;;;;;0.10;0.10;;;4.40;99.90;;;;;;4985197;28;20702;-73
2022/01/10 04:15:26;;;;;;;0.10;0.10;;;4.40;99.90;;;;;;4987905;28;20621;-72
2022/01/10 04:17:56;;;;;;;0.10;0.10;;;4.40;99.90;;;;;;4985907;28;20629;-74
2022/01/10 04:20:24;;;;;;;0.10;0.10;;;4.50;99.90;;;;;;4982816;28;20625;-73
2022/01/10 04:22:54;;;;;;;0.10;0.10;;;4.40;99.90;;;;;;4987763;28;20711;-72
2022/01/10 04:25:22;;;;;;;0.10;0.10;;;4.50;99.90;;;;;;4998446;28;20663;-73
2022/01/10 04:27:49;;;;;;;0.10;0.10;;;4.50;99.90;;;;;;4979583;28;20624;-73
2022/01/10 04:30:23;;;;;;;0.10;0.10;;;4.50;99.90;;;;;;4985441;28;20651;-72
2022/01/10 04:32:50;;;;;;;0.10;0.10;;;4.50;99.90;;;;;;4985028;28;20670;-73
2022/01/10 04:35:17;;;;;;;0.10;0.10;;;4.50;99.90;;;;;;4987693;28;20622;-73
2022/01/10 04:37:44;;;;;;;0.10;0.10;;;4.50;99.90;;;;;;4986042;28;20621;-72
2022/01/10 04:40:14;;;;;;;0.10;0.10;;;4.50;99.90;;;;;;4983250;28;20994;-72
2022/01/10 04:42:40;;;;;;;0.10;0.10;;;4.40;99.90;;;;;;4987967;28;20652;-73
2022/01/10 04:45:08;;;;;;;0.20;0.20;;;4.40;99.90;;;;;;4987959;28;20679;-72
2022/01/10 04:47:35;;;;;;;0.10;0.10;;;4.30;99.90;;;;;;4987938;28;20619;-72
2022/01/10 04:50:23;;;;;;;0.10;0.10;;;4.30;99.90;;;;;;4984243;28;20651;-72
2022/01/10 04:52:52;;;;;;;0.10;0.10;;;4.30;99.90;;;;;;4986841;28;20659;-72
2022/01/10 04:55:21;;;;;;;0.10;0.10;;;4.20;99.90;;;;;;4988047;28;20666;-73
2022/01/10 04:57:48;;;;;;;0.10;0.10;;;4.10;99.90;;;;;;4983018;28;20635;-72
2022/01/10 05:00:18;;;;;;;0.10;0.10;;;4.10;99.90;;;;;;4986490;28;20631;-72
2022/01/10 05:02:48;;;;;;;0.10;0.10;;;4.10;99.90;;;;;;4985008;28;20707;-73
2022/01/10 05:05:15;;;;;;;0.10;0.10;;;4.00;99.90;;;;;;4985187;28;20659;-72
2022/01/10 05:07:42;;;;;;;0.10;0.10;;;4.00;99.90;;;;;;4985997;28;20632;-73
2022/01/10 05:10:10;;;;;;;0.10;0.10;;;4.00;99.90;;;;;;4987997;28;20620;-73
2022/01/10 05:12:40;;;;;;;0.10;0.10;;;3.90;99.90;;;;;;4984687;28;20688;-73
2022/01/10 05:15:08;;;;;;;0.10;0.10;;;3.90;99.90;;;;;;4983848;28;20709;-74
2022/01/10 05:17:35;;;;;;;0.10;0.10;;;3.90;99.90;;;;;;4983499;28;20636;-73
2022/01/10 05:20:04;;;;;;;0.10;0.10;;;3.80;99.90;;;;;;4985290;28;20638;-73
2022/01/10 05:22:31;;;;;;;0.10;0.10;;;3.80;99.90;;;;;;4983666;28;20666;-73
2022/01/10 05:24:59;;;;;;;0.10;0.10;;;3.80;99.90;;;;;;4986405;28;20656;-73
2022/01/10 05:27:26;;;;;;;0.10;0.10;;;3.80;99.90;;;;;;4979081;28;20636;-74
2022/01/10 05:29:56;;;;;;;0.10;0.10;;;3.80;99.90;;;;;;4984364;28;20629;-72
2022/01/10 05:32:23;;;;;;;0.10;0.10;;;3.70;99.90;;;;;;4987495;28;20667;-70
2022/01/10 05:35:17;;;;;;;0.10;0.10;;;3.70;99.90;;;;;;4985221;28;20631;-72
2022/01/10 05:37:44;;;;;;;0.10;0.10;;;3.70;99.90;;;;;;4981830;28;20632;-71
2022/01/10 05:40:11;;;;;;;0.10;0.10;;;3.80;99.90;;;;;;4978648;28;20624;-71
2022/01/10 05:42:38;;;;;;;0.10;0.10;;;3.80;99.90;;;;;;4972723;28;20664;-71
2022/01/10 05:45:08;;;;;;;0.10;0.10;;;3.80;99.90;;;;;;4975615;28;21018;-70
2022/01/10 05:47:40;;;;;;;0.10;0.10;;;3.80;99.90;;;;;;4984245;28;20636;-71
2022/01/10 05:50:09;;;;;;;0.10;0.10;;;3.90;99.90;;;;;;4981169;28;21017;-71
2022/01/10 05:52:40;;;;;;;0.10;0.10;;;3.90;99.90;;;;;;4981194;28;21266;-71
2022/01/10 05:55:08;;;;;;;0.10;0.10;;;4.00;99.90;;;;;;4985321;28;20617;-72
2022/01/10 05:57:39;;;;;;;0.10;0.10;;;4.00;99.90;;;;;;4984299;28;21095;-72
2022/01/10 06:00:09;;;;;;;0.10;0.10;;;4.00;99.90;;;;;;4987088;28;20635;-71
2022/01/10 06:02:42;;;;;;;0.10;0.10;;;4.00;99.90;;;;;;4979503;28;20643;-71
2022/01/10 06:05:14;;;;;;;0.10;0.10;;;4.00;99.90;;;;;;4977141;28;20664;-71
2022/01/10 06:07:45;;;;;;;0.10;0.10;;;4.10;99.90;;;;;;4985906;28;20639;-72
2022/01/10 06:10:12;;;;;;;0.10;0.10;;;4.10;99.90;;;;;;4976789;28;20961;-72
2022/01/10 06:12:39;;;;;;;0.10;0.10;;;4.10;99.90;;;;;;4977475;28;21223;-71
2022/01/10 06:15:09;;;;;;;0.10;0.10;;;4.20;99.90;;;;;;4980127;28;20652;-72
2022/01/10 06:17:40;;;;;;;0.10;0.10;;;4.20;99.90;;;;;;4984117;28;21286;-71
2022/01/10 06:20:08;;;;;;;0.10;0.10;;;4.20;99.90;;;;;;4985043;28;20617;-72
2022/01/10 06:22:35;;;;;;;0.20;0.20;;;4.20;99.90;;;;;;4985473;28;20751;-71
2022/01/10 06:25:04;;;;;;;0.10;0.10;;;4.20;99.90;;;;;;4981186;28;20648;-71
2022/01/10 06:27:31;;;;;;;0.10;0.10;;;4.20;99.90;;;;;;4975091;28;20629;-71
2022/01/10 06:29:59;;;;;;;0.10;0.10;;;4.20;99.90;;;;;;4978078;28;20651;-72
2022/01/10 06:32:28;;;;;;;0.10;0.10;;;4.20;99.90;;;;;;4983641;28;20759;-71
2022/01/10 06:34:57;;;;;;;0.10;0.10;;;4.20;99.90;;;;;;4983800;28;20738;-71
2022/01/10 06:37:24;;;;;;;0.10;0.10;;;4.20;99.90;;;;;;4983669;28;20636;-72
2022/01/10 06:39:51;;;;;;;0.10;0.10;;;4.20;99.90;;;;;;4981011;28;20629;-71
2022/01/10 06:42:18;;;;;;;0.10;0.10;;;4.20;99.90;;;;;;4984080;28;20678;-72
2022/01/10 06:44:45;;;;;;;0.10;0.10;;;4.20;99.90;;;;;;4981047;28;20657;-71
2022/01/10 06:47:15;;;;;;;0.20;0.20;;;4.20;99.90;;;;;;4986284;28;20620;-72
2022/01/10 06:49:43;;;;;;;0.10;0.10;;;4.10;99.90;;;;;;4985891;28;20636;-71
2022/01/10 06:52:10;;;;;;;0.10;0.10;;;4.10;99.90;;;;;;4986418;28;20662;-71
2022/01/10 06:54:38;;;;;;;0.10;0.10;;;4.10;99.90;;;;;;4984362;28;20628;-71
2022/01/10 06:57:05;;;;;;;0.10;0.10;;;4.10;99.90;;;;;;4985329;28;20630;-73
2022/01/10 06:59:34;;;;;;;0.10;0.10;;;4.10;99.90;;;;;;4982638;28;20647;-71
2022/01/10 07:02:01;;;;;;;0.10;0.10;;;4.10;99.90;;;;;;4987633;28;20647;-71
2022/01/10 07:04:29;;;;;;;0.10;0.10;;;4.10;99.90;;;;;;4982272;28;20663;-71
2022/01/10 07:06:59;;;;;;;0.10;0.10;;;4.10;99.90;;;;;;4986916;28;20639;-73
2022/01/10 07:09:31;;;;;;;0.10;0.10;;;4.10;99.90;;;;;;4985577;28;20655;-73
2022/01/10 07:12:08;;;;;;;0.10;0.10;;;4.10;99.90;;;;;;4982439;28;20658;-72
2022/01/10 07:14:43;;;;;;;0.10;0.10;;;4.10;99.90;;;;;;4977809;28;21183;-73
2022/01/10 07:17:12;;;;;;;0.10;0.10;;;4.10;99.90;;;;;;4983643;28;20712;-73
2022/01/10 07:19:40;;;;;;;0.10;0.10;;;4.10;99.90;;;;;;4981672;28;20625;-72
2022/01/10 07:22:11;;;;;;;0.10;0.10;;;4.20;99.90;;;;;;4984304;28;20672;-72
2022/01/10 07:24:39;;;;;;;0.10;0.10;;;4.10;99.90;;;;;;4980911;28;20676;-73
2022/01/10 07:27:06;;;;;;;0.10;0.10;;;4.20;99.90;;;;;;4979670;28;20651;-73
2022/01/10 07:29:33;;;;;;;0.10;0.10;;;4.20;99.90;;;;;;4982474;28;20663;-72
2022/01/10 07:31:59;;;;;;;0.10;0.10;;;4.20;99.90;;;;;;4984811;28;20732;-72
2022/01/10 07:34:26;;;;;;;0.20;0.20;;;4.20;99.90;;;;;;4981587;28;20729;-73
2022/01/10 07:36:53;;;;;;;0.10;0.10;;;4.20;99.90;;;;;;4983320;28;20700;-71
2022/01/10 07:39:21;;;;;;;0.10;0.10;;;4.20;99.90;;;;;;4980338;28;20708;-71
2022/01/10 07:41:48;;;;;;;0.10;0.10;;;4.20;99.90;;;;;;4981146;28;20728;-71
2022/01/10 07:44:25;;;;;;;0.10;0.10;;;4.30;99.90;;;;;;4981692;28;20743;-72
2022/01/10 07:46:52;;;;;;;0.10;0.10;;;4.20;99.90;;;;;;4986632;28;20763;-72
2022/01/10 07:49:19;;;;;;;0.10;0.10;;;4.30;99.90;;;;;;4980580;28;20658;-72
2022/01/10 07:51:46;;;;;;;0.10;0.10;;;4.30;99.90;;;;;;4981440;28;20635;-73
2022/01/10 07:54:13;;;;;;;0.10;0.10;;;4.30;99.90;;;;;;4986092;28;20655;-73
2022/01/10 07:56:41;;;;;;;0.10;0.10;;;4.30;99.90;;;;;;4984903;28;20700;-71
2022/01/10 07:59:08;;;;;;;0.10;0.10;;;4.30;99.90;;;;;;4998617;28;20665;-73
2022/01/10 08:01:35;;;;;;;0.10;0.10;;;4.30;99.90;;;;;;4983338;28;20660;-71
2022/01/10 08:04:01;;;;;;;0.10;0.10;;;4.30;99.90;;;;;;4986153;28;21303;-73
2022/01/10 08:06:28;;;;;;;0.10;0.10;;;4.40;99.90;;;;;;4985105;28;20663;-73
2022/01/10 08:08:55;;;;;;;0.10;0.10;;;4.40;99.90;;;;;;4984333;28;20660;-72
2022/01/10 08:11:26;;;;;;;0.10;0.10;;;4.40;99.90;;;;;;4977644;28;20687;-73
2022/01/10 08:13:54;;;;;;;0.17;0.17;;;4.40;99.90;;;;;;4982313;28;20661;-70
2022/01/10 08:16:21;;;;;;;0.10;0.10;;;4.40;99.90;;;;;;4982501;28;20747;-71
2022/01/10 08:18:48;;;;;;;0.10;0.10;;;4.50;99.90;;;;;;4984228;28;20714;-72
2022/01/10 08:21:14;;;;;;;0.10;0.10;;;4.50;99.90;;;;;;4985621;28;20612;-73
2022/01/10 08:23:41;;;;;;;0.10;0.10;;;4.50;99.90;;;;;;4984847;28;21309;-72
2022/01/10 08:26:08;;;;;;;0.10;0.10;;;4.50;99.90;;;;;;4979764;28;20755;-73
2022/01/10 08:28:35;;;;;;;0.10;0.10;;;4.50;99.90;;;;;;4979478;28;20632;-73
2022/01/10 08:31:03;;;;;;;0.10;0.10;;;4.60;99.90;;;;;;4984174;28;20728;-71
2022/01/10 08:33:30;;;;;;;0.10;0.10;;;4.60;99.90;;;;;;4985638;28;21260;-72
2022/01/10 08:35:57;;;;;;;0.10;0.10;;;4.60;99.90;;;;;;4977204;28;20652;-72
2022/01/10 08:38:24;;;;;;;0.10;0.10;;;4.60;99.90;;;;;;4981523;28;20718;-71
2022/01/10 08:40:51;;;;;;;0.10;0.10;;;4.60;99.90;;;;;;4982674;28;20628;-72
2022/01/10 08:43:18;;;;;;;0.10;0.10;;;4.60;99.90;;;;;;4982054;28;20756;-71
2022/01/10 08:45:45;;;;;;;0.10;0.10;;;4.60;99.90;;;;;;4984233;28;20743;-72
2022/01/10 08:48:13;;;;;;;0.10;0.10;;;4.60;99.90;;;;;;4983820;28;20615;-72
2022/01/10 08:50:40;;;;;;;0.10;0.10;;;4.60;99.90;;;;;;4982772;28;20735;-72
2022/01/10 08:53:09;;;;;;;0.10;0.10;;;4.60;99.90;;;;;;4986377;28;20751;-72
2022/01/10 08:55:36;;;;;;;0.10;0.10;;;4.60;99.90;;;;;;4989109;28;20604;-72
2022/01/10 08:58:03;;;;;;;0.10;0.10;;;4.60;99.90;;;;;;4981308;28;20651;-72
2022/01/10 09:00:30;;;;;;;0.13;0.13;;;4.60;99.90;;;;;;4985735;28;20737;-72
2022/01/10 09:02:57;;;;;;;0.10;0.10;;;4.60;99.90;;;;;;4983783;28;20798;-72
2022/01/10 09:05:25;;;;;;;0.10;0.10;;;4.60;99.90;;;;;;4987499;28;20743;-72
2022/01/10 09:07:52;;;;;;;0.10;0.10;;;4.70;99.90;;;;;;4986106;28;20691;-72
2022/01/10 09:10:20;;;;;;;0.10;0.10;;;4.70;99.90;;;;;;4982328;28;20628;-72
2022/01/10 09:12:46;;;;;;;0.10;0.10;;;4.70;99.90;;;;;;4982537;28;20657;-72
2022/01/10 09:15:14;;;;;;;0.10;0.10;;;4.70;99.90;;;;;;4987730;28;20679;-72
2022/01/10 09:17:41;;;;;;;0.10;0.10;;;4.70;99.90;;;;;;4985337;28;20663;-71
2022/01/10 09:20:09;;;;;;;0.10;0.10;;;4.80;99.90;;;;;;4986312;28;20624;-70
2022/01/10 09:22:38;;;;;;;0.10;0.10;;;4.80;99.90;;;;;;4986841;28;20715;-71
2022/01/10 09:25:06;;;;;;;0.10;0.10;;;4.80;99.90;;;;;;4982576;28;20625;-71
2022/01/10 09:27:33;;;;;;;0.10;0.10;;;4.80;99.90;;;;;;4982166;28;20635;-70
2022/01/10 09:30:00;;;;;;;0.10;0.10;;;4.90;99.90;;;;;;4987595;28;20660;-71
2022/01/10 09:32:27;;;;;;;0.10;0.10;;;4.90;99.90;;;;;;4982261;28;20717;-70
2022/01/10 09:34:54;;;;;;;0.10;0.10;;;4.90;99.90;;;;;;4985678;28;20627;-71
2022/01/10 09:37:21;;;;;;;0.10;0.10;;;4.90;99.90;;;;;;4989393;28;20629;-70
2022/01/10 09:39:49;;;;;;;0.10;0.10;;;5.00;99.90;;;;;;4986299;28;20629;-71
2022/01/10 09:42:17;;;;;;;0.10;0.10;;;5.00;99.90;;;;;;4987920;28;20715;-71
2022/01/10 09:44:44;;;;;;;0.10;0.10;;;5.00;99.90;;;;;;4983524;28;20651;-72
2022/01/10 09:47:11;;;;;;;0.10;0.10;;;5.00;99.90;;;;;;4986772;28;20688;-71
2022/01/10 09:49:38;;;;;;;0.10;0.10;;;5.00;99.90;;;;;;4983854;28;20990;-72
2022/01/10 09:52:07;;;;;;;0.10;0.10;;;5.00;99.90;;;;;;4987645;28;20707;-70
2022/01/10 09:54:35;;;;;;;0.10;0.10;;;5.00;99.90;;;;;;4986357;28;20632;-71
2022/01/10 09:57:05;;;;;;;0.10;0.10;;;5.10;99.90;;;;;;4988735;28;20683;-71
2022/01/10 09:59:33;;;;;;;0.10;0.10;;;5.00;99.90;;;;;;4984291;28;20732;-72
2022/01/10 10:02:01;;;;;;;0.10;0.10;;;5.00;99.90;;;;;;4987228;28;20624;-72
2022/01/10 10:04:29;;;;;;;0.10;0.10;;;5.00;99.90;;;;;;4986082;28;20628;-72
2022/01/10 10:06:58;;;;;;;0.10;0.10;;;5.00;99.90;;;;;;4987052;28;20718;-71
2022/01/10 10:09:25;;;;;;;0.10;0.10;;;5.00;99.90;;;;;;4981752;28;20605;-70
2022/01/10 10:11:53;;;;;;;0.10;0.10;;;5.00;99.90;;;;;;4983173;28;20635;-71
2022/01/10 10:14:23;;;;;;;0.10;0.10;;;5.10;99.90;;;;;;4980314;28;20667;-70
2022/01/10 10:16:53;;;;;;;0.10;0.10;;;5.10;99.90;;;;;;4985668;28;20714;-71
2022/01/10 10:19:22;;;;;;;0.10;0.10;;;5.10;99.90;;;;;;4987909;28;20722;-72
2022/01/10 10:21:49;;;;;;;0.10;0.10;;;5.10;99.90;;;;;;5000875;28;20690;-71
2022/01/10 10:24:16;;;;;;;0.10;0.10;;;5.20;99.90;;;;;;4985552;28;20655;-71
2022/01/10 10:26:43;;;;;;;0.10;0.10;;;5.20;99.90;;;;;;4986900;28;20695;-70
2022/01/10 10:29:13;;;;;;;0.10;0.10;;;5.20;99.90;;;;;;4986326;28;20604;-72
2022/01/10 10:31:46;;;;;;;0.10;0.10;;;5.30;99.90;;;;;;4983831;28;20712;-71
2022/01/10 10:34:19;;;;;;;0.10;0.10;;;5.30;99.90;;;;;;4983213;28;20675;-71
2022/01/10 10:36:59;;;;;;;0.10;0.10;;;5.30;99.90;;;;;;4986243;28;20628;-71
2022/01/10 10:39:27;;;;;;;0.10;0.10;;;5.30;99.90;;;;;;4979785;28;20668;-70
2022/01/10 10:41:56;;;;;;;0.10;0.10;;;5.30;99.90;;;;;;4982917;28;20675;-71
2022/01/10 10:44:23;;;;;;;0.20;0.20;;;5.30;99.90;;;;;;4984474;28;20645;-71
2022/01/10 10:46:52;;;;;;;0.10;0.10;;;5.30;99.90;;;;;;4984819;28;21234;-71
2022/01/10 10:49:21;;;;;;;0.10;0.10;;;5.30;99.90;;;;;;4982121;28;20624;-70
2022/01/10 10:51:51;;;;;;;0.10;0.10;;;5.30;99.90;;;;;;4987001;28;20616;-71
2022/01/10 10:54:19;;;;;;;0.10;0.10;;;5.40;99.90;;;;;;4985885;28;20644;-71
2022/01/10 10:56:47;;;;;;;0.00;0.00;;;5.40;99.90;;;;;;4981291;28;20643;-71
2022/01/10 10:59:14;;;;;;;0.10;0.10;;;5.40;99.90;;;;;;4981268;28;20624;-70
2022/01/10 11:01:43;;;;;;;0.10;0.10;;;5.40;99.90;;;;;;4987790;28;20713;-71
2022/01/10 11:04:12;;;;;;;0.10;0.10;;;5.40;99.90;;;;;;4987159;28;20659;-71
2022/01/10 11:06:40;;;;;;;0.10;0.10;;;5.40;99.90;;;;;;4986019;28;20660;-71
2022/01/10 11:09:12;;;;;;;0.10;0.10;;;5.40;99.90;;;;;;4984344;28;20617;-71
2022/01/10 11:11:39;;;;;;;0.10;0.10;;;5.40;99.90;;;;;;4984137;28;20644;-72
2022/01/10 11:14:09;;;;;;;0.10;0.10;;;5.40;99.90;;;;;;4981882;28;20648;-70
2022/01/10 11:16:38;;;;;;;0.10;0.10;;;5.50;99.90;;;;;;4982083;28;20636;-71
2022/01/10 11:19:13;;;;;;;0.10;0.10;;;5.50;99.90;;;;;;4985770;28;20640;-72
2022/01/10 11:21:41;;;;;;;0.10;0.10;;;5.50;99.90;;;;;;4984011;28;20615;-70
2022/01/10 11:24:08;;;;;;;0.10;0.10;;;5.50;99.90;;;;;;4985477;28;20680;-71
2022/01/10 11:26:40;;;;;;;0.10;0.10;;;5.40;99.90;;;;;;4982115;28;20665;-72
2022/01/10 11:29:09;;;;;;;0.10;0.10;;;5.40;99.90;;;;;;4983689;28;20659;-71
2022/01/10 11:31:40;;;;;;;0.10;0.10;;;5.40;99.90;;;;;;4985804;28;20731;-71
2022/01/10 11:34:07;;;;;;;0.10;0.10;;;5.50;99.90;;;;;;4998748;28;20727;-71
2022/01/10 11:36:35;;;;;;;0.10;0.10;;;5.50;99.90;;;;;;4983695;28;20640;-71
2022/01/10 11:39:10;;;;;;;0.10;0.10;;;5.50;99.90;;;;;;4980397;28;20643;-71
2022/01/10 11:41:37;;;;;;;0.17;0.17;;;5.50;99.90;;;;;;4984372;28;20659;-72
2022/01/10 11:44:07;;;;;;;0.10;0.10;;;5.50;99.90;;;;;;4984919;28;20670;-71
2022/01/10 11:46:37;;;;;;;0.10;0.10;;;5.60;99.90;;;;;;4983533;28;20691;-71
2022/01/10 11:49:17;;;;;;;0.10;0.10;;;5.60;99.90;;;;;;4985988;28;20633;-71
2022/01/10 11:52:02;;;;;;;0.10;0.10;;;5.60;99.90;;;;;;4985472;28;20635;-71
2022/01/10 11:54:36;;;;;;;0.10;0.10;;;5.60;99.90;;;;;;4982094;28;20612;-71
2022/01/10 11:57:05;;;;;;;0.10;0.10;;;5.60;99.90;;;;;;4986118;28;20715;-70
2022/01/10 11:59:33;;;;;;;0.10;0.10;;;5.60;99.90;;;;;;4985139;28;20683;-71
2022/01/10 12:02:04;;;;;;;0.13;0.13;;;5.60;99.90;;;;;;4983958;28;20625;-72
2022/01/10 12:04:33;;;;;;;0.10;0.10;;;5.60;99.90;;;;;;4984288;28;20656;-71
2022/01/10 12:07:02;;;;;;;0.10;0.10;;;5.60;99.90;;;;;;4985950;28;20702;-71
2022/01/10 12:09:30;;;;;;;0.10;0.10;;;5.60;99.90;;;;;;4986532;28;20612;-71
2022/01/10 12:11:59;;;;;;;0.10;0.10;;;5.50;99.90;;;;;;4985325;28;20624;-71
2022/01/10 12:14:27;;;;;;;0.10;0.10;;;5.50;99.90;;;;;;4986379;28;20627;-71
2022/01/10 12:16:55;;;;;;;0.10;0.10;;;5.60;99.90;;;;;;4983859;28;21032;-71
2022/01/10 12:19:23;;;;;;;0.10;0.10;;;5.60;99.90;;;;;;4983402;28;20640;-70
2022/01/10 12:21:51;;;;;;;0.10;0.10;;;5.50;99.90;;;;;;4985087;28;20636;-70
2022/01/10 12:24:19;;;;;;;0.10;0.10;;;5.60;99.90;;;;;;4984735;28;20633;-70
2022/01/10 12:26:47;;;;;;;0.10;0.10;;;5.60;99.90;;;;;;4982893;28;20644;-71
2022/01/10 12:29:15;;;;;;;0.10;0.10;;;5.60;99.90;;;;;;4988531;28;20631;-71
2022/01/10 12:31:44;;;;;;;0.10;0.10;;;5.60;99.90;;;;;;4986462;28;20624;-70
2022/01/10 12:34:13;;;;;;;0.10;0.10;;;5.60;99.90;;;;;;4989150;28;20632;-71
2022/01/10 12:36:41;;;;;;;0.10;0.10;;;5.60;99.90;;;;;;4987551;28;20624;-70
2022/01/10 12:39:12;;;;;;;0.10;0.10;;;5.60;99.90;;;;;;4987173;28;20715;-70
2022/01/10 12:41:41;;;;;;;0.10;0.10;;;5.60;99.90;;;;;;4987026;28;20624;-70
2022/01/10 12:44:08;;;;;;;0.10;0.10;;;5.60;99.90;;;;;;4986948;28;20652;-70
2022/01/10 12:46:36;;;;;;;0.10;0.10;;;5.60;99.90;;;;;;4984996;28;20734;-71
2022/01/10 12:49:06;;;;;;;0.10;0.10;;;5.60;99.90;;;;;;4989561;28;20608;-70
2022/01/10 12:51:36;;;;;;;0.10;0.10;;;5.60;99.90;;;;;;4988242;28;20631;-71
2022/01/10 12:54:04;;;;;;;0.10;0.10;;;5.60;99.90;;;;;;4989014;28;20687;-71
2022/01/10 12:56:31;;;;;;;0.10;0.10;;;5.60;99.90;;;;;;4989713;28;20631;-71
2022/01/10 12:59:00;;;;;;;0.10;0.10;;;5.60;99.90;;;;;;4983836;28;20605;-70
2022/01/10 13:01:27;;;;;;;0.10;0.10;;;5.60;99.90;;;;;;4990149;28;21174;-70
2022/01/10 13:03:56;;;;;;;0.10;0.10;;;5.60;99.90;;;;;;4988183;28;20675;-70
2022/01/10 13:06:27;;;;;;;0.10;0.10;;;5.70;99.90;;;;;;4988627;28;20780;-71
2022/01/10 13:08:55;;;;;;;0.10;0.10;;;5.70;99.90;;;;;;4988756;28;20650;-71
2022/01/10 13:11:23;;;;;;;0.10;0.10;;;5.70;99.90;;;;;;4983202;28;21213;-71